Time;durP1;ratioP1;P1;durP2;ratioP2;P2;SDS_P1;SDS_P2;PMS_P1;PMS_P2;Temp;Humidity;BMP_temperature;BMP_pressure;BME280_temperature;BME280_humidity;BME280_pressure;Samples;Min_cycle;Max_cycle;Signal;HPM_P1;HPM_P2
2022/10/10 00:00:31;;;;;;;21.77;9.40;;;;;;;9.18;93.64;101303.63;5010026;28;20084;-37
2022/10/10 00:02:56;;;;;;;23.58;9.68;;;;;;;9.20;93.54;101300.81;5010212;28;20037;-37
2022/10/10 00:05:22;;;;;;;20.20;10.05;;;;;;;9.20;93.35;101300.81;5009212;28;20069;-36
2022/10/10 00:07:47;;;;;;;17.58;9.27;;;;;;;9.22;93.75;101296.13;5009749;28;20425;-38
2022/10/10 00:10:12;;;;;;;16.92;9.52;;;;;;;9.21;93.46;101297.09;5009872;28;20017;-36
2022/10/10 00:12:38;;;;;;;27.73;10.25;;;;;;;9.25;93.12;101294.97;5010045;28;20030;-37
2022/10/10 00:15:05;;;;;;;23.33;9.52;;;;;;;9.25;93.20;101290.41;4993086;28;20049;-37
2022/10/10 00:17:31;;;;;;;23.27;9.20;;;;;;;9.28;93.02;101289.25;5010356;28;20393;-37
2022/10/10 00:19:56;;;;;;;26.80;10.30;;;;;;;9.27;92.91;101282.19;5010116;28;20030;-36
2022/10/10 00:22:22;;;;;;;16.80;9.77;;;;;;;9.29;92.70;101285.56;5010208;28;20084;-36
2022/10/10 00:24:47;;;;;;;27.67;10.27;;;;;;;9.29;92.76;101280.19;5009719;28;20038;-36
2022/10/10 00:27:12;;;;;;;18.80;9.38;;;;;;;9.32;92.63;101278.03;4974411;28;20029;-35
2022/10/10 00:29:38;;;;;;;18.92;8.85;;;;;;;9.34;92.40;101276.00;5003730;28;20048;-36
2022/10/10 00:32:03;;;;;;;22.23;10.40;;;;;;;9.36;92.62;101282.06;5010151;28;20026;-36
2022/10/10 00:34:28;;;;;;;25.95;9.95;;;;;;;9.37;92.53;101275.69;5009847;28;20564;-36
2022/10/10 00:36:54;;;;;;;22.13;10.38;;;;;;;9.38;92.62;101279.22;5010010;28;20041;-36
2022/10/10 00:39:19;;;;;;;25.70;9.90;;;;;;;9.40;92.58;101270.00;5009659;28;20022;-37
2022/10/10 00:41:44;;;;;;;20.10;9.70;;;;;;;9.43;92.24;101283.09;5010047;28;20022;-35
2022/10/10 00:44:13;;;;;;;26.13;9.98;;;;;;;9.48;92.51;101268.31;4992395;28;20062;-37
2022/10/10 00:46:39;;;;;;;18.05;9.48;;;;;;;9.48;92.35;101268.31;5009792;28;20457;-37
2022/10/10 00:49:10;;;;;;;21.90;11.00;;;;;;;9.47;92.35;101266.63;4992098;28;20100;-35
2022/10/10 00:51:35;;;;;;;26.13;10.77;;;;;;;9.48;92.22;101258.44;4991836;28;20053;-37
2022/10/10 00:54:03;;;;;;;17.85;10.90;;;;;;;9.51;92.51;101268.00;4992240;28;20037;-37
2022/10/10 00:56:39;;;;;;;23.00;10.45;;;;;;;9.52;91.76;101267.00;4994965;28;20088;-37
2022/10/10 00:59:05;;;;;;;24.38;10.38;;;;;;;9.53;91.83;101255.22;5013290;28;20519;-37
2022/10/10 01:01:31;;;;;;;25.63;10.93;;;;;;;9.54;92.02;101264.97;4995766;28;20049;-38
2022/10/10 01:03:58;;;;;;;22.70;10.52;;;;;;;9.53;91.79;101255.22;5013618;28;20026;-36
2022/10/10 01:06:23;;;;;;;21.05;10.43;;;;;;;9.53;91.46;101249.84;5013582;28;20021;-36
2022/10/10 01:08:48;;;;;;;22.00;10.57;;;;;;;9.51;91.61;101251.88;5012879;28;20398;-36
2022/10/10 01:11:38;;;;;;;21.05;10.35;;;;;;;9.47;91.82;101250.53;5013255;28;20041;-36
2022/10/10 01:14:29;;;;;;;23.25;10.30;;;;;;;9.45;91.91;101251.53;5003019;28;20034;-37
2022/10/10 01:17:09;;;;;;;23.02;10.02;;;;;;;9.42;91.79;101249.16;5012932;28;20462;-36
2022/10/10 01:19:47;;;;;;;23.52;10.95;;;;;;;9.45;91.79;101246.16;4995873;28;20037;-36
2022/10/10 01:22:30;;;;;;;26.67;11.35;;;;;;;9.45;92.01;101240.78;5013151;28;20030;-36
2022/10/10 01:25:40;;;;;;;25.05;11.13;;;;;;;9.45;91.93;101243.47;5013097;28;20030;-37
2022/10/10 01:28:43;;;;;;;26.80;10.90;;;;;;;9.44;91.98;101241.78;4952207;29;20402;-36
2022/10/10 01:31:10;;;;;;;24.70;10.45;;;;;;;9.43;92.47;101236.59;5013080;28;20529;-36
2022/10/10 01:34:00;;;;;;;29.15;12.20;;;;;;;9.41;92.65;101236.75;4995324;28;20044;-36
2022/10/10 01:36:56;;;;;;;26.17;11.40;;;;;;;9.38;92.51;101231.69;5012587;28;20026;-37
2022/10/10 01:39:44;;;;;;;22.83;11.10;;;;;;;9.39;92.62;101227.16;4988265;28;20050;-36
2022/10/10 01:42:20;;;;;;;22.58;11.02;;;;;;;9.36;92.46;101222.13;4996427;28;20021;-36
2022/10/10 01:44:46;;;;;;;24.52;11.05;;;;;;;9.35;92.88;101223.97;4995127;28;20099;-36
2022/10/10 01:47:12;;;;;;;29.65;11.32;;;;;;;9.31;92.84;101217.25;5012099;28;20109;-36
2022/10/10 01:49:40;;;;;;;30.35;11.15;;;;;;;9.31;92.99;101213.72;5012652;28;20121;-36
2022/10/10 01:52:11;;;;;;;21.13;10.88;;;;;;;9.30;93.23;101220.94;5012232;28;20033;-37
2022/10/10 01:55:04;;;;;;;26.60;11.80;;;;;;;9.30;93.26;101218.25;4995014;28;20034;-36
2022/10/10 01:57:48;;;;;;;23.48;11.32;;;;;;;9.30;93.13;101215.56;5012201;28;20026;-36
2022/10/10 02:00:16;;;;;;;26.52;11.77;;;;;;;9.31;92.79;101211.88;5012080;28;20033;-37
2022/10/10 02:02:45;;;;;;;22.88;10.88;;;;;;;9.30;92.80;101210.19;5012238;28;20022;-35
2022/10/10 02:05:20;;;;;;;23.90;11.43;;;;;;;9.27;92.70;101205.16;4994473;28;20034;-36
2022/10/10 02:07:49;;;;;;;28.50;11.30;;;;;;;9.25;93.17;101204.47;5025635;23;20053;-40
2022/10/10 02:10:20;;;;;;;25.85;12.18;;;;;;;9.22;93.28;101207.50;4976733;28;20065;-38
2022/10/10 02:12:46;;;;;;;30.98;12.50;;;;;;;9.19;93.23;101205.97;4994253;28;20117;-39
2022/10/10 02:15:19;;;;;;;26.52;11.75;;;;;;;9.16;93.11;101202.75;5011910;28;20029;-37
2022/10/10 02:17:46;;;;;;;23.35;11.80;;;;;;;9.14;93.46;101202.09;5011477;28;20040;-38
2022/10/10 02:20:12;;;;;;;26.58;11.52;;;;;;;9.12;93.76;101196.88;4978092;28;20034;-38
2022/10/10 02:22:40;;;;;;;23.17;11.35;;;;;;;9.08;93.91;101192.84;5011665;28;20053;-38
2022/10/10 02:25:07;;;;;;;28.55;10.55;;;;;;;9.10;94.20;101190.00;4994459;28;20101;-38
2022/10/10 02:27:42;;;;;;;22.95;10.73;;;;;;;9.05;94.22;101187.78;5011633;28;20432;-38
2022/10/10 02:30:08;;;;;;;23.73;11.25;;;;;;;9.06;94.42;101183.25;4993908;28;20033;-39
2022/10/10 02:32:41;;;;;;;27.55;11.93;;;;;;;9.03;94.60;101187.16;4993756;28;20018;-38
2022/10/10 02:35:17;;;;;;;29.10;12.05;;;;;;;9.01;95.05;101189.16;5010772;28;20118;-38
2022/10/10 02:37:43;;;;;;;30.65;12.10;;;;;;;9.02;95.46;101180.06;4977330;28;20038;-38
2022/10/10 02:40:11;;;;;;;29.13;11.88;;;;;;;9.01;95.30;101181.94;4994120;28;20018;-38
2022/10/10 02:42:37;;;;;;;28.40;11.35;;;;;;;8.99;95.54;101173.19;4977233;28;20073;-38
2022/10/10 02:45:04;;;;;;;24.45;10.57;;;;;;;9.01;95.78;101173.03;5011525;28;20022;-37
2022/10/10 02:47:29;;;;;;;27.38;12.30;;;;;;;9.01;95.71;101175.72;5010980;28;20080;-38
2022/10/10 02:49:55;;;;;;;30.45;11.45;;;;;;;9.01;96.35;101173.88;5011615;28;20076;-38
2022/10/10 02:52:20;;;;;;;22.48;11.20;;;;;;;8.99;96.40;101178.56;5010462;28;20117;-39
2022/10/10 02:54:45;;;;;;;22.55;11.85;;;;;;;8.99;96.47;101178.56;5010826;28;20026;-39
2022/10/10 02:57:11;;;;;;;26.05;11.90;;;;;;;9.00;96.24;101174.03;4993475;28;20050;-38
2022/10/10 02:59:36;;;;;;;42.10;12.35;;;;;;;8.96;96.42;101168.16;4993499;28;20235;-39
2022/10/10 03:02:02;;;;;;;23.50;12.25;;;;;;;9.01;96.72;101175.72;4992941;28;20060;-39
2022/10/10 03:04:27;;;;;;;37.70;11.95;;;;;;;9.04;97.09;101171.88;5010815;28;20030;-39
2022/10/10 03:06:53;;;;;;;28.10;11.48;;;;;;;9.08;97.15;101165.16;5010816;28;20382;-39
2022/10/10 03:09:19;;;;;;;25.25;11.32;;;;;;;9.10;97.34;101168.53;4993652;28;20101;-39
2022/10/10 03:11:44;;;;;;;27.25;11.77;;;;;;;9.16;97.26;101160.66;5010914;28;20038;-39
2022/10/10 03:14:10;;;;;;;25.20;11.95;;;;;;;9.20;97.04;101166.53;4993058;28;20041;-39
2022/10/10 03:16:35;;;;;;;36.33;11.80;;;;;;;9.21;97.01;101166.34;5010617;28;20037;-39
2022/10/10 03:19:02;;;;;;;25.77;11.27;;;;;;;9.23;96.96;101158.97;5010397;28;20040;-39
2022/10/10 03:21:28;;;;;;;24.75;11.60;;;;;;;9.25;96.75;101158.81;5010583;28;20037;-39
2022/10/10 03:23:54;;;;;;;26.55;11.73;;;;;;;9.25;97.02;101166.88;5010937;28;20462;-38
2022/10/10 03:26:19;;;;;;;27.95;11.43;;;;;;;9.25;96.74;101158.81;4993016;28;20040;-37
2022/10/10 03:28:44;;;;;;;28.00;12.40;;;;;;;9.24;96.97;101159.81;5010378;28;20432;-38
2022/10/10 03:31:10;;;;;;;30.73;11.68;;;;;;;9.22;96.91;101161.84;4973658;28;20035;-38
2022/10/10 03:33:35;;;;;;;25.85;11.32;;;;;;;9.25;97.37;101158.81;5001812;28;20026;-39
2022/10/10 03:36:01;;;;;;;28.48;11.20;;;;;;;9.23;96.95;101168.88;5009042;28;20034;-37
2022/10/10 03:38:26;;;;;;;25.65;10.75;;;;;;;9.21;97.42;101160.13;5007330;28;20405;-37
2022/10/10 03:40:51;;;;;;;31.67;11.60;;;;;;;9.19;97.67;101165.69;5008193;28;20103;-38
2022/10/10 03:43:17;;;;;;;28.42;11.98;;;;;;;9.19;97.76;101167.53;5007647;28;20087;-39
2022/10/10 03:45:44;;;;;;;27.60;12.63;;;;;;;9.15;97.61;101166.19;4973568;28;20038;-37
2022/10/10 03:48:09;;;;;;;28.17;11.20;;;;;;;9.13;97.92;101168.19;5007444;28;20570;-39
2022/10/10 03:50:35;;;;;;;31.05;11.50;;;;;;;9.08;97.73;101170.53;4990068;28;20058;-38
2022/10/10 03:53:01;;;;;;;33.63;13.02;;;;;;;9.05;97.88;101170.84;5007499;28;20167;-38
2022/10/10 03:55:26;;;;;;;35.80;12.60;;;;;;;9.01;98.41;101163.13;5006472;28;20042;-37
2022/10/10 03:57:51;;;;;;;32.00;11.93;;;;;;;8.96;98.00;101170.84;5007356;28;20061;-38
2022/10/10 04:00:18;;;;;;;29.15;12.52;;;;;;;8.92;98.38;101166.78;5007194;28;20477;-38
2022/10/10 04:02:44;;;;;;;25.75;11.98;;;;;;;8.89;98.48;101161.75;5007645;28;20038;-38
2022/10/10 04:05:09;;;;;;;32.28;12.52;;;;;;;8.88;99.08;101169.97;5007668;28;20400;-39
2022/10/10 04:07:35;;;;;;;41.55;14.38;;;;;;;8.86;99.14;101159.38;5007007;28;20079;-38
2022/10/10 04:10:00;;;;;;;31.70;13.43;;;;;;;8.79;99.15;101156.53;5007115;28;20041;-39
2022/10/10 04:12:26;;;;;;;32.38;13.20;;;;;;;8.80;99.45;101162.72;5006645;28;20049;-39
2022/10/10 04:14:51;;;;;;;37.53;12.80;;;;;;;8.79;100.00;101156.53;5007064;28;20033;-40
2022/10/10 04:17:16;;;;;;;33.35;12.60;;;;;;;8.78;100.00;101154.84;5007110;28;20441;-38
2022/10/10 04:19:42;;;;;;;36.45;12.85;;;;;;;8.77;100.00;101152.34;5007315;28;20034;-37
2022/10/10 04:22:08;;;;;;;29.65;13.13;;;;;;;8.76;100.00;101156.00;5007498;28;20034;-37
2022/10/10 04:24:33;;;;;;;32.72;13.32;;;;;;;8.77;100.00;101152.34;5007444;28;20464;-39
2022/10/10 04:26:59;;;;;;;35.67;13.48;;;;;;;8.75;100.00;101149.78;5006758;28;20537;-38
2022/10/10 04:29:24;;;;;;;31.67;13.60;;;;;;;8.73;100.00;101151.78;5006928;28;20069;-38
2022/10/10 04:31:50;;;;;;;36.65;14.38;;;;;;;8.71;100.00;101147.59;5011475;28;20315;-40
2022/10/10 04:34:15;;;;;;;35.20;13.52;;;;;;;8.68;100.00;101151.44;4992964;28;20401;-40
2022/10/10 04:36:40;;;;;;;39.47;14.15;;;;;;;8.69;100.00;101152.28;5011152;28;20030;-38
2022/10/10 04:39:06;;;;;;;38.03;13.23;;;;;;;8.68;100.00;101161.34;5011077;28;20034;-39
2022/10/10 04:41:31;;;;;;;36.85;14.20;;;;;;;8.68;100.00;101161.34;5010950;28;20116;-38
2022/10/10 04:43:57;;;;;;;33.28;13.00;;;;;;;8.69;100.00;101165.69;5011222;28;20456;-38
2022/10/10 04:46:22;;;;;;;36.20;14.45;;;;;;;8.69;100.00;101163.00;5007611;28;20044;-38
2022/10/10 04:48:48;;;;;;;34.15;14.45;;;;;;;8.67;100.00;101168.56;5011201;28;20171;-38
2022/10/10 04:51:13;;;;;;;31.58;13.88;;;;;;;8.66;100.00;101161.50;4993188;28;20029;-39
2022/10/10 04:53:38;;;;;;;40.08;14.55;;;;;;;8.65;100.00;101167.03;5009672;28;20427;-39
2022/10/10 04:56:04;;;;;;;31.58;13.45;;;;;;;8.64;100.00;101178.78;5012204;28;20053;-39
2022/10/10 04:58:29;;;;;;;32.10;13.93;;;;;;;8.60;100.00;101172.88;5012382;28;20517;-39
2022/10/10 05:00:55;;;;;;;38.13;14.57;;;;;;;8.60;100.00;101164.00;5013087;28;20088;-39
2022/10/10 05:03:21;;;;;;;36.13;13.80;;;;;;;8.57;100.00;101166.00;4995564;28;20036;-39
2022/10/10 05:05:47;;;;;;;35.58;13.95;;;;;;;8.54;100.00;101174.34;5013266;28;20029;-38
2022/10/10 05:08:12;;;;;;;39.67;14.43;;;;;;;8.55;100.00;101181.41;5012972;28;20057;-39
2022/10/10 05:10:38;;;;;;;41.17;15.10;;;;;;;8.54;100.00;101179.72;4995463;28;20022;-38
2022/10/10 05:13:05;;;;;;;39.35;14.65;;;;;;;8.62;100.00;101180.78;5013173;28;20083;-39
2022/10/10 05:15:33;;;;;;;42.40;16.05;;;;;;;8.68;100.00;101185.50;4995430;28;20022;-40
2022/10/10 05:17:58;;;;;;;42.55;14.98;;;;;;;8.71;100.00;101185.16;4995980;28;20062;-38
2022/10/10 05:20:24;;;;;;;36.47;13.98;;;;;;;8.73;100.00;101183.16;5013426;28;20056;-38
2022/10/10 05:22:49;;;;;;;33.33;15.15;;;;;;;8.78;100.00;101191.56;4995950;28;20026;-38
2022/10/10 05:25:15;;;;;;;43.60;16.00;;;;;;;8.81;100.00;101193.94;5012577;28;20022;-39
2022/10/10 05:27:40;;;;;;;49.40;16.23;;;;;;;8.84;100.00;101187.41;4995332;28;20125;-38
2022/10/10 05:30:06;;;;;;;39.03;14.93;;;;;;;8.84;100.00;101190.91;5013106;28;20033;-39
2022/10/10 05:32:31;;;;;;;46.70;14.90;;;;;;;8.87;100.00;101189.75;5012448;28;20026;-40
2022/10/10 05:34:56;;;;;;;35.13;14.90;;;;;;;8.86;100.00;101188.91;4994891;28;20524;-38
2022/10/10 05:37:22;;;;;;;48.42;15.55;;;;;;;8.87;100.00;101197.81;5013561;28;20492;-38
2022/10/10 05:39:47;;;;;;;32.78;14.73;;;;;;;8.85;100.00;101197.97;5013049;28;20044;-38
2022/10/10 05:42:13;;;;;;;35.38;14.85;;;;;;;8.83;100.00;101194.63;5011481;28;20168;-37
2022/10/10 05:44:39;;;;;;;36.38;14.77;;;;;;;8.88;100.00;101203.03;4995465;28;20120;-37
2022/10/10 05:47:04;;;;;;;42.17;16.58;;;;;;;8.89;100.00;101193.94;5013080;28;20058;-39
2022/10/10 05:49:29;;;;;;;40.42;16.15;;;;;;;8.89;100.00;101198.50;5012817;28;20497;-39
2022/10/10 05:51:55;;;;;;;44.72;15.60;;;;;;;8.90;100.00;101198.34;5012199;28;20115;-39
2022/10/10 05:54:21;;;;;;;41.63;15.95;;;;;;;8.93;100.00;101199.84;5012428;28;20040;-39
2022/10/10 05:56:46;;;;;;;43.05;17.13;;;;;;;8.94;100.00;101199.69;5012347;28;20045;-39
2022/10/10 05:59:12;;;;;;;47.03;16.60;;;;;;;8.96;100.00;101199.53;5012549;28;20115;-39
2022/10/10 06:01:37;;;;;;;50.63;16.92;;;;;;;8.98;100.00;101198.38;5012198;28;20026;-39
2022/10/10 06:04:03;;;;;;;42.97;16.55;;;;;;;9.00;100.00;101200.88;5011752;28;20477;-38
2022/10/10 06:06:28;;;;;;;52.22;16.23;;;;;;;9.02;100.00;101191.66;5012017;28;20029;-37
2022/10/10 06:08:54;;;;;;;41.78;15.32;;;;;;;9.04;100.00;101191.50;5012067;28;20049;-38
2022/10/10 06:11:22;;;;;;;39.10;16.45;;;;;;;9.07;100.00;101185.78;5011854;28;20026;-39
2022/10/10 06:13:51;;;;;;;39.58;15.70;;;;;;;9.11;100.00;101192.53;5011997;28;20034;-38
2022/10/10 06:16:16;;;;;;;42.05;16.95;;;;;;;9.19;100.00;101195.25;5011206;28;20084;-38
2022/10/10 06:18:42;;;;;;;52.15;17.10;;;;;;;9.27;100.00;101194.41;4993660;28;20050;-37
2022/10/10 06:21:07;;;;;;;52.60;17.98;;;;;;;9.34;100.00;101190.03;5011709;28;20037;-37
2022/10/10 06:23:33;;;;;;;53.20;16.52;;;;;;;9.42;100.00;101190.06;5011917;28;20482;-38
2022/10/10 06:25:58;;;;;;;46.28;17.65;;;;;;;9.49;100.00;101197.47;5011705;28;20033;-39
2022/10/10 06:28:24;;;;;;;38.92;16.77;;;;;;;9.55;100.00;101200.31;4994040;28;20168;-38
2022/10/10 06:30:50;;;;;;;52.50;17.05;;;;;;;9.62;100.00;101204.03;5011901;28;20064;-38
2022/10/10 06:33:18;;;;;;;45.80;18.17;;;;;;;9.67;100.00;101203.53;4994341;28;20085;-39
2022/10/10 06:35:47;;;;;;;59.60;16.42;;;;;;;9.77;100.00;101204.22;4994179;28;20036;-38
2022/10/10 06:38:15;;;;;;;43.58;16.73;;;;;;;9.77;100.00;101200.66;5011694;28;20030;-38
2022/10/10 06:40:40;;;;;;;47.30;17.27;;;;;;;9.81;100.00;101194.78;5011612;28;20109;-39
2022/10/10 06:43:10;;;;;;;48.65;17.58;;;;;;;9.85;100.00;101196.16;4977893;28;20118;-39
2022/10/10 06:45:39;;;;;;;38.42;16.85;;;;;;;9.89;100.00;101202.84;4993450;28;20117;-39
2022/10/10 06:48:05;;;;;;;51.30;17.52;;;;;;;9.96;100.00;101202.19;5011582;28;20088;-38
2022/10/10 06:50:30;;;;;;;50.53;17.90;;;;;;;10.03;100.00;101222.00;5011460;28;20493;-38
2022/10/10 06:52:55;;;;;;;35.42;16.40;;;;;;;10.10;100.00;101209.56;5010757;28;20425;-39
2022/10/10 06:55:21;;;;;;;47.08;17.15;;;;;;;10.17;100.00;101221.31;5011680;28;20144;-39
2022/10/10 06:57:46;;;;;;;44.00;18.83;;;;;;;10.22;100.00;101218.13;5011761;28;20099;-39
2022/10/10 07:00:12;;;;;;;50.03;18.52;;;;;;;10.25;100.00;101221.31;4993813;28;20030;-39
2022/10/10 07:02:39;;;;;;;45.15;16.95;;;;;;;10.26;100.00;101214.06;4993533;28;20565;-39
2022/10/10 07:05:07;;;;;;;38.00;16.05;;;;;;;10.30;100.00;101224.38;5011443;28;20018;-39
2022/10/10 07:07:33;;;;;;;;;;;;;;;10.31;100.00;101226.03;5011363;28;20347;-39
2022/10/10 07:09:58;;;;;;;51.67;16.50;;;;;;;10.43;100.00;101221.16;4993689;28;19917;-39
2022/10/10 07:12:24;;;;;;;45.75;15.98;;;;;;;10.51;100.00;101225.69;4993178;28;20026;-39
2022/10/10 07:14:49;;;;;;;41.58;15.23;;;;;;;10.70;100.00;101221.75;4993741;28;20088;-38
2022/10/10 07:17:14;;;;;;;42.08;15.82;;;;;;;10.89;100.00;101215.94;5011549;28;20467;-39
2022/10/10 07:19:40;;;;;;;39.70;15.27;;;;;;;10.87;99.86;101217.94;5011370;28;20176;-39
2022/10/10 07:22:05;;;;;;;40.20;16.83;;;;;;;10.94;99.13;101228.88;5011021;28;20489;-38
2022/10/10 07:24:30;;;;;;;41.42;15.63;;;;;;;11.07;99.11;101229.16;5011295;28;20485;-38
2022/10/10 07:26:56;;;;;;;42.25;16.17;;;;;;;11.13;98.49;101227.59;4993736;28;20501;-39
2022/10/10 07:29:21;;;;;;;44.03;15.93;;;;;;;11.33;98.18;101228.03;5011073;28;20030;-39
2022/10/10 07:31:47;;;;;;;39.70;14.63;;;;;;;11.61;97.59;101228.31;5010452;28;20038;-39
2022/10/10 07:34:12;;;;;;;47.53;14.18;;;;;;;11.85;95.99;101232.72;4993272;28;20105;-39
2022/10/10 07:36:39;;;;;;;34.65;13.27;;;;;;;12.07;94.28;101229.19;5010818;28;20507;-38
2022/10/10 07:39:04;;;;;;;30.08;13.80;;;;;;;12.28;92.80;101233.03;5010969;28;20414;-37
2022/10/10 07:41:30;;;;;;;35.92;12.55;;;;;;;12.70;91.20;101226.19;5011026;28;20112;-39
2022/10/10 07:43:55;;;;;;;34.35;13.50;;;;;;;13.29;89.00;101231.53;5010664;28;20034;-40
2022/10/10 07:46:21;;;;;;;33.53;12.45;;;;;;;13.47;85.75;101224.88;5010777;28;20504;-38
2022/10/10 07:48:48;;;;;;;32.40;12.38;;;;;;;13.13;85.47;101237.13;5010700;28;20087;-39
2022/10/10 07:51:14;;;;;;;33.42;12.32;;;;;;;12.86;86.62;101236.78;4993516;28;20145;-39
2022/10/10 07:53:40;;;;;;;33.60;12.37;;;;;;;12.69;88.04;101240.69;4993420;28;20041;-38
2022/10/10 07:56:07;;;;;;;30.35;13.70;;;;;;;12.65;88.75;101245.63;5010268;28;20791;-38
2022/10/10 07:58:33;;;;;;;30.48;13.10;;;;;;;12.51;89.41;101251.88;5010445;28;20056;-38
2022/10/10 08:01:03;;;;;;;39.13;12.85;;;;;;;12.32;90.39;101252.41;4992728;28;20037;-38
2022/10/10 08:03:28;;;;;;;34.10;12.90;;;;;;;12.23;91.53;101262.44;5010346;28;20048;-38
2022/10/10 08:05:54;;;;;;;34.38;13.38;;;;;;;12.10;92.64;101254.13;5011036;28;20034;-38
2022/10/10 08:08:19;;;;;;;38.58;13.30;;;;;;;12.14;93.04;101261.69;4994450;28;20050;-38
2022/10/10 08:10:44;;;;;;;33.00;12.77;;;;;;;12.23;93.36;101267.84;5011651;28;20457;-40
2022/10/10 08:13:10;;;;;;;34.28;12.35;;;;;;;12.13;93.39;101264.53;5010473;28;20057;-38
2022/10/10 08:15:38;;;;;;;34.25;13.65;;;;;;;12.15;93.50;101265.22;5010226;28;20033;-39
2022/10/10 08:18:03;;;;;;;38.40;12.13;;;;;;;12.17;93.67;101268.56;5010129;28;20446;-38
2022/10/10 08:20:29;;;;;;;39.05;13.85;;;;;;;12.16;93.92;101266.88;5010274;28;20030;-38
2022/10/10 08:22:54;;;;;;;30.85;12.00;;;;;;;12.18;94.33;101272.94;5010173;28;20089;-38
2022/10/10 08:25:19;;;;;;;39.05;13.57;;;;;;;12.19;94.29;101266.50;4992457;28;20033;-37
2022/10/10 08:27:45;;;;;;;34.92;12.82;;;;;;;12.20;94.58;101276.28;5010173;28;20038;-38
2022/10/10 08:30:11;;;;;;;41.72;13.48;;;;;;;12.28;94.65;101284.31;5010232;28;20025;-38
2022/10/10 08:32:36;;;;;;;32.65;12.45;;;;;;;12.33;94.63;101286.47;4976266;28;20030;-39
2022/10/10 08:35:02;;;;;;;35.45;12.43;;;;;;;12.28;94.32;101273.53;5010343;28;20029;-39
2022/10/10 08:37:28;;;;;;;42.75;12.88;;;;;;;12.30;94.34;101279.59;4976634;28;20053;-39
2022/10/10 08:39:53;;;;;;;23.92;11.43;;;;;;;12.38;94.24;101276.81;4992522;28;20165;-38
2022/10/10 08:42:40;;;;;;;33.80;12.05;;;;;;;12.45;94.34;101283.16;4992350;28;20109;-37
2022/10/10 08:45:20;;;;;;;28.25;12.10;;;;;;;12.55;93.82;101282.03;4992674;28;20373;-39
2022/10/10 08:47:48;;;;;;;28.88;11.90;;;;;;;12.61;93.25;101276.75;4992672;28;20116;-38
2022/10/10 08:50:30;;;;;;;28.80;11.50;;;;;;;12.77;93.23;101278.44;4992669;28;20073;-39
2022/10/10 08:52:59;;;;;;;29.80;11.55;;;;;;;12.76;92.98;101279.44;4976107;28;20125;-38
2022/10/10 08:55:34;;;;;;;35.85;13.07;;;;;;;12.79;93.14;101297.97;4992660;28;20054;-39
2022/10/10 08:58:09;;;;;;;34.92;11.02;;;;;;;12.92;93.00;101294.63;4975652;28;20091;-38
2022/10/10 09:00:40;;;;;;;28.00;11.82;;;;;;;13.03;92.31;101299.56;4992674;28;20030;-40
2022/10/10 09:03:19;;;;;;;34.08;12.85;;;;;;;13.02;91.93;101297.06;5010333;28;20108;-37
2022/10/10 09:06:12;;;;;;;39.55;12.30;;;;;;;13.04;91.95;101303.13;4992623;28;20026;-38
2022/10/10 09:08:41;;;;;;;32.03;12.15;;;;;;;13.11;91.94;101301.31;4992145;28;20081;-37
2022/10/10 09:11:18;;;;;;;36.10;12.88;;;;;;;13.29;91.67;101299.09;4992649;28;20410;-37
2022/10/10 09:13:50;;;;;;;;;;;;;;;13.37;90.83;101304.41;5010448;28;20022;-38
2022/10/10 09:16:45;;;;;;;29.75;11.88;;;;;;;13.51;89.91;101305.44;4993730;28;19913;-39
2022/10/10 09:19:41;;;;;;;33.22;11.23;;;;;;;13.73;89.91;101309.00;4994198;28;20426;-38
2022/10/10 09:22:13;;;;;;;37.47;11.13;;;;;;;13.87;88.83;101304.56;5013527;28;20493;-38
2022/10/10 09:24:55;;;;;;;36.42;11.93;;;;;;;13.95;88.09;101312.53;5013316;28;20033;-39
2022/10/10 09:27:23;;;;;;;35.28;11.45;;;;;;;13.95;87.91;101328.78;4995905;28;20030;-40
2022/10/10 09:29:54;;;;;;;;;;;;;;;14.05;88.10;101323.06;5013612;28;20025;-39
2022/10/10 09:32:23;;;;;;;32.60;10.05;;;;;;;14.19;87.81;101329.44;5013324;28;19968;-39
2022/10/10 09:34:52;;;;;;;34.45;11.65;;;;;;;14.20;87.01;101323.84;5013231;28;20022;-38
2022/10/10 09:37:22;;;;;;;33.47;10.43;;;;;;;14.30;86.99;101325.38;4995031;28;20405;-39
2022/10/10 09:39:52;;;;;;;28.83;11.15;;;;;;;14.37;86.98;101329.81;4995425;28;20026;-39
2022/10/10 09:42:21;;;;;;;24.63;9.77;;;;;;;14.30;86.70;101336.19;4995718;28;20050;-39
2022/10/10 09:44:46;;;;;;;30.20;11.95;;;;;;;14.25;87.64;101339.50;4995411;28;20369;-38
2022/10/10 09:47:13;;;;;;;41.00;11.88;;;;;;;14.11;87.74;101354.75;4995480;28;20026;-38
2022/10/10 09:49:38;;;;;;;29.75;10.48;;;;;;;14.13;88.31;101357.28;4995208;28;20094;-39
2022/10/10 09:52:34;;;;;;;29.05;10.07;;;;;;;14.17;88.39;101351.31;5012919;28;20116;-38
2022/10/10 09:55:04;;;;;;;29.92;10.50;;;;;;;14.24;88.25;101362.19;4979603;28;20029;-39
2022/10/10 09:57:38;;;;;;;26.95;10.85;;;;;;;14.36;88.08;101357.09;5013339;28;20469;-38
2022/10/10 10:00:19;;;;;;;36.47;9.95;;;;;;;14.46;87.92;101363.03;4995354;28;20128;-40
2022/10/10 10:03:07;;;;;;;28.25;8.98;;;;;;;14.42;87.89;101369.84;5012987;28;20397;-39
2022/10/10 10:05:33;;;;;;;31.50;9.32;;;;;;;14.34;88.47;101370.00;4995049;28;20079;-39
2022/10/10 10:07:59;;;;;;;37.30;10.65;;;;;;;14.27;88.99;101373.47;5012003;28;20505;-39
2022/10/10 10:10:26;;;;;;;32.92;10.43;;;;;;;14.21;89.67;101376.94;4995026;28;20029;-38
2022/10/10 10:12:52;;;;;;;28.13;10.07;;;;;;;14.25;90.50;101380.13;4994997;28;20088;-39
2022/10/10 10:15:20;;;;;;;19.77;9.35;;;;;;;14.30;90.58;101390.34;4994648;28;20022;-39
2022/10/10 10:18:20;;;;;;;52.38;11.27;;;;;;;14.25;91.18;101394.47;4994800;28;20053;-38
2022/10/10 10:21:07;;;;;;;31.85;9.77;;;;;;;14.35;91.40;101399.59;4995227;28;20029;-39
2022/10/10 10:23:34;;;;;;;35.22;10.55;;;;;;;14.31;91.78;101413.69;4997068;28;20132;-39
2022/10/10 10:26:05;;;;;;;30.75;9.98;;;;;;;14.28;92.00;101407.63;5012158;28;20061;-39
2022/10/10 10:28:31;;;;;;;25.73;9.82;;;;;;;14.30;92.67;101414.72;5011137;28;20457;-39
2022/10/10 10:30:57;;;;;;;29.35;10.35;;;;;;;14.29;92.94;101419.28;4978274;28;20045;-39
2022/10/10 10:33:44;;;;;;;31.55;11.20;;;;;;;14.27;92.87;101414.09;4994744;28;20133;-39
2022/10/10 10:36:45;;;;;;;24.65;9.98;;;;;;;14.37;93.46;101415.63;5012037;28;20030;-38
2022/10/10 10:39:51;;;;;;;38.78;10.98;;;;;;;14.42;93.67;101421.31;4980065;28;20044;-37
2022/10/10 10:42:35;;;;;;;39.90;11.55;;;;;;;14.42;93.87;101416.72;4978064;28;20212;-40
2022/10/10 10:45:15;;;;;;;35.33;10.82;;;;;;;14.47;94.11;101424.28;5011962;28;20030;-38
2022/10/10 10:48:07;;;;;;;36.92;9.40;;;;;;;14.52;94.64;101411.00;4978330;28;20022;-39
2022/10/10 10:51:13;;;;;;;31.30;9.35;;;;;;;14.64;94.97;101419.44;5011564;28;20030;-38
2022/10/10 10:53:47;;;;;;;33.95;7.82;;;;;;;14.78;95.30;101420.44;4950608;29;20046;-38
2022/10/10 10:56:27;;;;;;;37.45;8.20;;;;;;;14.97;95.46;101424.31;5002111;28;20054;-37
2022/10/10 10:58:52;;;;;;;30.88;6.20;;;;;;;15.07;94.77;101424.81;4994182;28;20037;-38
2022/10/10 11:01:26;;;;;;;29.38;5.00;;;;;;;15.13;94.43;101421.31;5011258;28;20111;-38
2022/10/10 11:04:03;;;;;;;28.83;5.28;;;;;;;15.13;94.67;101430.28;4993775;28;20040;-39
2022/10/10 11:06:50;;;;;;;18.42;4.05;;;;;;;15.13;94.67;101429.44;5010908;28;20026;-39
2022/10/10 11:09:16;;;;;;;;;;;;;;;15.12;94.64;101423.19;4991029;28;20048;-39
2022/10/10 11:12:18;;;;;;;29.17;4.28;;;;;;;15.14;95.18;101426.56;4990305;28;19929;-38
2022/10/10 11:15:10;;;;;;;18.13;4.20;;;;;;;15.14;97.36;101434.69;4990346;28;20034;-40
2022/10/10 11:17:42;;;;;;;24.10;5.30;;;;;;;15.15;97.97;101439.06;4991493;28;20030;-39
2022/10/10 11:20:17;;;;;;;25.58;5.65;;;;;;;15.12;99.19;101447.59;4991642;28;20084;-39
2022/10/10 11:23:00;;;;;;;12.70;4.78;;;;;;;15.05;99.56;101443.97;4991575;28;20350;-38
2022/10/10 11:25:30;;;;;;;21.13;5.03;;;;;;;15.01;99.69;101455.41;4991627;28;20030;-38